KDTN/DTN METAR and TAF weather

Enter ICAO airport designator
Station Type Date Time Source
KDTN METAR 2020/10/22 01:53 UTC NOAA

KDTN 220153Z 11004KT 10SM CLR 25/20 A3003 RMK AO2 SLP168 T02500200


Station Type Date Time Source
KDTN Decoded METAR 2020/10/22 01:53 UTC NOAA

SHREVEPORT DOWNTOWN AIRPORT, LA, United States (KDTN) 32-32N 093-45W 53M
Oct 21, 2020 - 09:53 PM EDT / 2020.10.22 0153 UTC
Wind: from the ESE (110 degrees) at 5 MPH (4 KT):0
Visibility: 10 mile(s):0
Sky conditions: clear
Temperature: 77.0 F (25.0 C)
Dew Point: 68.0 F (20.0 C)
Relative Humidity: 73%
Pressure (altimeter): 30.03 in. Hg (1016 hPa)
ob: KDTN 220153Z 11004KT 10SM CLR 25/20 A3003 RMK AO2 SLP168 T02500200
cycle: 2

Station Type Date Time Source
KDTN TAF UTC NOAA

Error!

Example: see airport list